sensor_id;sensor_type;location;lat;lon;timestamp;pressure;altitude;pressure_sealevel;temperature;humidity
15884;BME280;8040;50.254;10.960;2023-04-05T00:00:36;98927.81;;;2.29;56.73
15884;BME280;8040;50.254;10.960;2023-04-05T00:03:02;98922.09;;;2.26;57.21
15884;BME280;8040;50.254;10.960;2023-04-05T00:05:28;98894.66;;;2.01;56.28
15884;BME280;8040;50.254;10.960;2023-04-05T00:08:02;98932.31;;;2.17;57.11
15884;BME280;8040;50.254;10.960;2023-04-05T00:10:31;98921.00;;;2.15;57.50
15884;BME280;8040;50.254;10.960;2023-04-05T00:12:57;98901.53;;;1.97;57.12
15884;BME280;8040;50.254;10.960;2023-04-05T00:15:22;98808.50;;;1.46;57.17
15884;BME280;8040;50.254;10.960;2023-04-05T00:17:48;98854.16;;;1.74;57.54
15884;BME280;8040;50.254;10.960;2023-04-05T00:20:14;98864.03;;;1.74;57.50
15884;BME280;8040;50.254;10.960;2023-04-05T00:22:40;98873.16;;;1.96;57.34
15884;BME280;8040;50.254;10.960;2023-04-05T00:25:09;98906.59;;;2.16;57.66
15884;BME280;8040;50.254;10.960;2023-04-05T00:27:35;98899.34;;;2.05;57.89
15884;BME280;8040;50.254;10.960;2023-04-05T00:30:00;98896.78;;;1.99;57.75
15884;BME280;8040;50.254;10.960;2023-04-05T00:32:26;98850.53;;;1.69;57.71
15884;BME280;8040;50.254;10.960;2023-04-05T00:34:51;98852.06;;;1.76;57.83
15884;BME280;8040;50.254;10.960;2023-04-05T00:37:17;98828.41;;;1.62;57.92
15884;BME280;8040;50.254;10.960;2023-04-05T00:39:42;98906.47;;;2.11;57.74
15884;BME280;8040;50.254;10.960;2023-04-05T00:42:08;98901.78;;;2.07;57.21
15884;BME280;8040;50.254;10.960;2023-04-05T00:44:34;98882.47;;;1.93;57.45
15884;BME280;8040;50.254;10.960;2023-04-05T00:47:04;98852.75;;;1.72;57.73
15884;BME280;8040;50.254;10.960;2023-04-05T00:49:31;98826.09;;;1.65;57.95
15884;BME280;8040;50.254;10.960;2023-04-05T00:51:57;98845.78;;;1.82;57.89
15884;BME280;8040;50.254;10.960;2023-04-05T00:54:24;98886.28;;;1.97;57.77
15884;BME280;8040;50.254;10.960;2023-04-05T00:56:50;98823.03;;;1.50;57.25
15884;BME280;8040;50.254;10.960;2023-04-05T00:59:18;98788.50;;;1.37;57.57
15884;BME280;8040;50.254;10.960;2023-04-05T01:01:44;98861.81;;;1.71;57.42
15884;BME280;8040;50.254;10.960;2023-04-05T01:04:27;98808.81;;;1.38;57.86
15884;BME280;8040;50.254;10.960;2023-04-05T01:07:08;98857.59;;;1.63;57.99
15884;BME280;8040;50.254;10.960;2023-04-05T01:09:55;98867.59;;;1.68;58.51
15884;BME280;8040;50.254;10.960;2023-04-05T01:12:23;98855.97;;;1.62;58.76
15884;BME280;8040;50.254;10.960;2023-04-05T01:14:52;98795.19;;;1.28;58.65
15884;BME280;8040;50.254;10.960;2023-04-05T01:17:23;98806.72;;;1.40;58.60
15884;BME280;8040;50.254;10.960;2023-04-05T01:19:54;98829.31;;;1.44;58.84
15884;BME280;8040;50.254;10.960;2023-04-05T01:22:50;98874.84;;;1.79;58.29
15884;BME280;8040;50.254;10.960;2023-04-05T01:30:48;98838.41;;;1.55;58.32
15884;BME280;8040;50.254;10.960;2023-04-05T01:33:28;98777.84;;;1.19;58.61
15884;BME280;8040;50.254;10.960;2023-04-05T01:36:06;98812.44;;;1.44;58.89
15884;BME280;8040;50.254;10.960;2023-04-05T01:38:34;98859.94;;;1.71;58.94
15884;BME280;8040;50.254;10.960;2023-04-05T01:41:03;98795.00;;;1.41;58.87
15884;BME280;8040;50.254;10.960;2023-04-05T01:43:28;98822.94;;;1.57;58.67
15884;BME280;8040;50.254;10.960;2023-04-05T01:45:54;98858.19;;;1.65;58.99
15884;BME280;8040;50.254;10.960;2023-04-05T01:48:19;98758.16;;;1.02;58.80
15884;BME280;8040;50.254;10.960;2023-04-05T01:50:45;98815.78;;;1.39;59.05
15884;BME280;8040;50.254;10.960;2023-04-05T01:53:10;98858.75;;;1.67;59.02
15884;BME280;8040;50.254;10.960;2023-04-05T01:55:36;98835.22;;;1.46;58.64
15884;BME280;8040;50.254;10.960;2023-04-05T01:58:01;98865.97;;;1.67;59.09
15884;BME280;8040;50.254;10.960;2023-04-05T02:00:27;98775.63;;;1.16;59.21
15884;BME280;8040;50.254;10.960;2023-04-05T02:02:52;98854.78;;;1.58;59.13
15884;BME280;8040;50.254;10.960;2023-04-05T02:05:18;98809.81;;;1.26;59.23
15884;BME280;8040;50.254;10.960;2023-04-05T02:07:43;98814.22;;;1.20;59.21
15884;BME280;8040;50.254;10.960;2023-04-05T02:10:09;98798.03;;;1.15;59.39
15884;BME280;8040;50.254;10.960;2023-04-05T02:12:34;98838.22;;;1.38;59.08
15884;BME280;8040;50.254;10.960;2023-04-05T02:14:59;98776.84;;;1.02;59.10
15884;BME280;8040;50.254;10.960;2023-04-05T02:17:25;98842.06;;;1.42;59.34
15884;BME280;8040;50.254;10.960;2023-04-05T02:19:58;98827.16;;;1.35;59.24
15884;BME280;8040;50.254;10.960;2023-04-05T02:22:27;98750.06;;;0.91;59.09
15884;BME280;8040;50.254;10.960;2023-04-05T02:24:52;98779.66;;;1.07;58.90
15884;BME280;8040;50.254;10.960;2023-04-05T02:27:18;98814.59;;;1.35;59.09
15884;BME280;8040;50.254;10.960;2023-04-05T02:29:43;98812.41;;;1.32;59.01
15884;BME280;8040;50.254;10.960;2023-04-05T02:32:09;98745.75;;;0.78;59.13
15884;BME280;8040;50.254;10.960;2023-04-05T02:34:34;98839.84;;;1.39;59.12
15884;BME280;8040;50.254;10.960;2023-04-05T02:37:01;98746.63;;;0.72;59.39
15884;BME280;8040;50.254;10.960;2023-04-05T02:39:28;98781.59;;;1.00;59.59
15884;BME280;8040;50.254;10.960;2023-04-05T02:41:53;98832.59;;;1.28;60.14
15884;BME280;8040;50.254;10.960;2023-04-05T02:44:19;98826.97;;;1.18;60.27
15884;BME280;8040;50.254;10.960;2023-04-05T02:46:44;98779.91;;;0.88;60.07
15884;BME280;8040;50.254;10.960;2023-04-05T02:49:10;98767.00;;;0.85;60.05
15884;BME280;8040;50.254;10.960;2023-04-05T02:51:35;98813.25;;;1.15;60.07
15884;BME280;8040;50.254;10.960;2023-04-05T02:54:04;98713.16;;;0.58;59.69
15884;BME280;8040;50.254;10.960;2023-04-05T02:56:29;98840.03;;;1.26;59.63
15884;BME280;8040;50.254;10.960;2023-04-05T02:58:55;98802.50;;;1.03;60.02
15884;BME280;8040;50.254;10.960;2023-04-05T03:01:20;98830.69;;;1.17;60.00
15884;BME280;8040;50.254;10.960;2023-04-05T03:03:46;98834.75;;;1.20;60.25
15884;BME280;8040;50.254;10.960;2023-04-05T03:06:12;98707.53;;;0.48;60.15
15884;BME280;8040;50.254;10.960;2023-04-05T03:08:38;98784.88;;;1.02;59.95
15884;BME280;8040;50.254;10.960;2023-04-05T03:11:09;98752.03;;;0.84;59.91
15884;BME280;8040;50.254;10.960;2023-04-05T03:13:35;98781.59;;;1.00;59.49
15884;BME280;8040;50.254;10.960;2023-04-05T03:16:04;98836.91;;;1.29;59.49
15884;BME280;8040;50.254;10.960;2023-04-05T03:18:30;98730.25;;;0.69;59.66
15884;BME280;8040;50.254;10.960;2023-04-05T03:20:56;98812.22;;;1.16;59.54
15884;BME280;8040;50.254;10.960;2023-04-05T03:23:24;98782.88;;;0.98;59.47
15884;BME280;8040;50.254;10.960;2023-04-05T03:26:00;98744.88;;;0.66;59.70
15884;BME280;8040;50.254;10.960;2023-04-05T03:28:25;98832.69;;;1.22;59.81
15884;BME280;8040;50.254;10.960;2023-04-05T03:30:52;98815.56;;;1.11;59.87
15884;BME280;8040;50.254;10.960;2023-04-05T03:33:18;98771.03;;;0.76;60.19
15884;BME280;8040;50.254;10.960;2023-04-05T03:35:44;98786.84;;;0.77;60.21
15884;BME280;8040;50.254;10.960;2023-04-05T03:38:09;98795.09;;;0.87;60.00
15884;BME280;8040;50.254;10.960;2023-04-05T03:40:35;98732.13;;;0.50;60.20
15884;BME280;8040;50.254;10.960;2023-04-05T03:43:00;98763.25;;;0.56;60.07
15884;BME280;8040;50.254;10.960;2023-04-05T03:45:26;98794.53;;;0.85;60.42
15884;BME280;8040;50.254;10.960;2023-04-05T03:47:54;98741.53;;;0.53;60.32
15884;BME280;8040;50.254;10.960;2023-04-05T03:50:19;98765.63;;;0.64;60.33
15884;BME280;8040;50.254;10.960;2023-04-05T03:52:45;98795.00;;;0.82;60.26
15884;BME280;8040;50.254;10.960;2023-04-05T03:55:11;98771.72;;;0.71;60.33
15884;BME280;8040;50.254;10.960;2023-04-05T03:57:38;98800.38;;;0.94;60.34
15884;BME280;8040;50.254;10.960;2023-04-05T04:00:04;98671.38;;;0.16;59.82
15884;BME280;8040;50.254;10.960;2023-04-05T04:02:44;98751.69;;;0.62;60.27
15884;BME280;8040;50.254;10.960;2023-04-05T04:05:13;98753.25;;;0.70;59.85
15884;BME280;8040;50.254;10.960;2023-04-05T04:07:43;98784.69;;;0.86;60.39
15884;BME280;8040;50.254;10.960;2023-04-05T04:10:15;98772.44;;;0.78;60.46
15884;BME280;8040;50.254;10.960;2023-04-05T04:12:43;98752.34;;;0.58;59.95
15884;BME280;8040;50.254;10.960;2023-04-05T04:15:10;98762.59;;;0.61;60.40
15884;BME280;8040;50.254;10.960;2023-04-05T04:17:36;98758.28;;;0.60;60.18
15884;BME280;8040;50.254;10.960;2023-04-05T04:20:03;98840.28;;;1.07;59.81
15884;BME280;8040;50.254;10.960;2023-04-05T04:22:36;98833.88;;;1.08;59.90
15884;BME280;8040;50.254;10.960;2023-04-05T04:25:10;98765.50;;;0.59;60.21
15884;BME280;8040;50.254;10.960;2023-04-05T04:27:41;98844.28;;;1.16;59.56
15884;BME280;8040;50.254;10.960;2023-04-05T04:30:08;98750.06;;;0.61;59.20
15884;BME280;8040;50.254;10.960;2023-04-05T04:32:35;98810.69;;;1.08;59.47
15884;BME280;8040;50.254;10.960;2023-04-05T04:35:23;98834.22;;;1.29;59.38
15884;BME280;8040;50.254;10.960;2023-04-05T04:37:59;98816.06;;;1.20;59.38
15884;BME280;8040;50.254;10.960;2023-04-05T04:40:36;98741.31;;;0.72;58.90
15884;BME280;8040;50.254;10.960;2023-04-05T04:43:09;98845.41;;;1.38;59.19
15884;BME280;8040;50.254;10.960;2023-04-05T04:45:39;98732.25;;;0.73;59.20
15884;BME280;8040;50.254;10.960;2023-04-05T04:48:05;98773.00;;;0.98;58.92
15884;BME280;8040;50.254;10.960;2023-04-05T04:50:31;98843.47;;;1.45;58.92
15884;BME280;8040;50.254;10.960;2023-04-05T04:53:00;98801.91;;;1.19;58.64
15884;BME280;8040;50.254;10.960;2023-04-05T04:55:27;98815.28;;;1.31;58.20
15884;BME280;8040;50.254;10.960;2023-04-05T04:57:53;98806.63;;;1.17;58.51
15884;BME280;8040;50.254;10.960;2023-04-05T05:00:21;98784.88;;;1.02;58.95
15884;BME280;8040;50.254;10.960;2023-04-05T05:02:46;98823.88;;;1.33;58.64
15884;BME280;8040;50.254;10.960;2023-04-05T05:05:12;98840.66;;;1.40;58.63
15884;BME280;8040;50.254;10.960;2023-04-05T05:07:39;98764.19;;;0.98;58.87
15884;BME280;8040;50.254;10.960;2023-04-05T05:10:10;98760.22;;;1.00;58.77
15884;BME280;8040;50.254;10.960;2023-04-05T05:12:39;98835.59;;;1.50;58.44
15884;BME280;8040;50.254;10.960;2023-04-05T05:15:05;98732.22;;;0.91;58.65
15884;BME280;8040;50.254;10.960;2023-04-05T05:17:30;98835.84;;;1.60;58.84
15884;BME280;8040;50.254;10.960;2023-04-05T05:20:02;98806.03;;;1.45;58.61
15884;BME280;8040;50.254;10.960;2023-04-05T05:22:38;98803.63;;;1.55;58.26
15884;BME280;8040;50.254;10.960;2023-04-05T05:25:05;98798.56;;;1.65;58.18
15884;BME280;8040;50.254;10.960;2023-04-05T05:27:36;98838.19;;;2.43;57.68
15884;BME280;8040;50.254;10.960;2023-04-05T05:30:03;98733.47;;;2.68;55.80
15884;BME280;8040;50.254;10.960;2023-04-05T05:32:28;98797.94;;;3.73;53.49
15884;BME280;8040;50.254;10.960;2023-04-05T05:34:54;98785.41;;;4.45;51.58
15884;BME280;8040;50.254;10.960;2023-04-05T05:37:21;98729.44;;;4.80;49.67
15884;BME280;8040;50.254;10.960;2023-04-05T05:39:53;98849.31;;;5.93;47.69
15884;BME280;8040;50.254;10.960;2023-04-05T05:42:19;98745.44;;;5.39;46.72
15884;BME280;8040;50.254;10.960;2023-04-05T05:44:45;98805.75;;;5.96;46.49
15884;BME280;8040;50.254;10.960;2023-04-05T05:47:10;98779.94;;;5.74;45.71
15884;BME280;8040;50.254;10.960;2023-04-05T05:49:36;98771.66;;;5.54;45.74
15884;BME280;8040;50.254;10.960;2023-04-05T05:52:02;98785.13;;;5.27;45.88
15884;BME280;8040;50.254;10.960;2023-04-05T05:54:28;98800.81;;;4.92;47.23
15884;BME280;8040;50.254;10.960;2023-04-05T05:56:54;98754.97;;;4.39;47.79
15884;BME280;8040;50.254;10.960;2023-04-05T05:59:19;98792.09;;;4.42;48.56
15884;BME280;8040;50.254;10.960;2023-04-05T06:01:45;98793.06;;;4.36;47.98
15884;BME280;8040;50.254;10.960;2023-04-05T06:04:11;98813.41;;;4.32;48.59
15884;BME280;8040;50.254;10.960;2023-04-05T06:06:37;98803.66;;;4.26;48.88
15884;BME280;8040;50.254;10.960;2023-04-05T06:09:02;98792.03;;;3.88;49.14
15884;BME280;8040;50.254;10.960;2023-04-05T06:11:28;98748.75;;;3.51;49.89
15884;BME280;8040;50.254;10.960;2023-04-05T06:13:53;98776.22;;;3.58;50.13
15884;BME280;8040;50.254;10.960;2023-04-05T06:16:22;98798.81;;;3.62;50.76
15884;BME280;8040;50.254;10.960;2023-04-05T06:18:48;98827.63;;;3.83;50.46
15884;BME280;8040;50.254;10.960;2023-04-05T06:21:14;98815.84;;;3.84;50.87
15884;BME280;8040;50.254;10.960;2023-04-05T06:23:41;98692.38;;;3.02;51.02
15884;BME280;8040;50.254;10.960;2023-04-05T06:26:22;98751.31;;;3.30;51.24
15884;BME280;8040;50.254;10.960;2023-04-05T06:28:52;98748.69;;;3.35;50.82
15884;BME280;8040;50.254;10.960;2023-04-05T06:31:19;98768.28;;;3.35;51.17
15884;BME280;8040;50.254;10.960;2023-04-05T06:33:45;98767.34;;;3.41;51.46
15884;BME280;8040;50.254;10.960;2023-04-05T06:36:11;98747.94;;;3.23;51.95
15884;BME280;8040;50.254;10.960;2023-04-05T06:38:37;98791.25;;;3.43;52.13
15884;BME280;8040;50.254;10.960;2023-04-05T06:41:02;98733.75;;;2.94;52.22
15884;BME280;8040;50.254;10.960;2023-04-05T06:43:28;98775.00;;;3.21;52.53
15884;BME280;8040;50.254;10.960;2023-04-05T06:45:57;98715.56;;;2.68;52.27
15884;BME280;8040;50.254;10.960;2023-04-05T06:48:23;98744.28;;;2.73;52.47
15884;BME280;8040;50.254;10.960;2023-04-05T06:50:59;98798.81;;;3.06;53.08
15884;BME280;8040;50.254;10.960;2023-04-05T06:53:26;98782.63;;;3.01;52.68
15884;BME280;8040;50.254;10.960;2023-04-05T06:55:56;98795.41;;;3.22;53.11
15884;BME280;8040;50.254;10.960;2023-04-05T06:58:23;98791.19;;;3.26;53.45
15884;BME280;8040;50.254;10.960;2023-04-05T07:00:49;98734.56;;;2.95;52.84
15884;BME280;8040;50.254;10.960;2023-04-05T07:03:15;98812.91;;;3.69;53.15
15884;BME280;8040;50.254;10.960;2023-04-05T07:05:49;98778.13;;;3.30;52.62
15884;BME280;8040;50.254;10.960;2023-04-05T07:08:15;98762.84;;;3.30;52.56
15884;BME280;8040;50.254;10.960;2023-04-05T07:10:43;98731.25;;;3.32;52.48
15884;BME280;8040;50.254;10.960;2023-04-05T07:13:08;98768.41;;;3.57;51.79
15884;BME280;8040;50.254;10.960;2023-04-05T07:15:34;98742.00;;;3.49;52.18
15884;BME280;8040;50.254;10.960;2023-04-05T07:17:59;98827.72;;;4.05;51.92
15884;BME280;8040;50.254;10.960;2023-04-05T07:20:25;98788.91;;;3.96;50.99
15884;BME280;8040;50.254;10.960;2023-04-05T07:22:50;98754.63;;;3.81;51.08
15884;BME280;8040;50.254;10.960;2023-04-05T07:25:16;98799.09;;;4.27;51.29
15884;BME280;8040;50.254;10.960;2023-04-05T07:27:41;98782.50;;;4.13;49.98
15884;BME280;8040;50.254;10.960;2023-04-05T07:30:07;98827.56;;;4.44;49.08
15884;BME280;8040;50.254;10.960;2023-04-05T07:32:33;98821.28;;;4.55;49.01
15884;BME280;8040;50.254;10.960;2023-04-05T07:34:58;98680.53;;;3.80;49.29
15884;BME280;8040;50.254;10.960;2023-04-05T07:37:24;98765.38;;;4.36;49.57
15884;BME280;8040;50.254;10.960;2023-04-05T07:39:51;98816.91;;;4.49;46.85
15884;BME280;8040;50.254;10.960;2023-04-05T07:42:17;98809.28;;;4.63;46.87
15884;BME280;8040;50.254;10.960;2023-04-05T07:44:45;98767.91;;;4.42;47.00
15884;BME280;8040;50.254;10.960;2023-04-05T07:47:11;98769.63;;;4.48;46.32
15884;BME280;8040;50.254;10.960;2023-04-05T07:49:37;98701.47;;;4.16;45.21
15884;BME280;8040;50.254;10.960;2023-04-05T07:52:02;98740.47;;;4.40;42.82
15884;BME280;8040;50.254;10.960;2023-04-05T07:54:30;98794.88;;;4.90;43.82
15884;BME280;8040;50.254;10.960;2023-04-05T07:56:57;98795.38;;;5.09;43.62
15884;BME280;8040;50.254;10.960;2023-04-05T07:59:23;98769.25;;;5.04;43.51
15884;BME280;8040;50.254;10.960;2023-04-05T08:01:51;98778.25;;;5.15;42.80
15884;BME280;8040;50.254;10.960;2023-04-05T08:04:20;98723.81;;;4.81;42.67
15884;BME280;8040;50.254;10.960;2023-04-05T08:06:46;98703.88;;;4.77;41.53
15884;BME280;8040;50.254;10.960;2023-04-05T08:09:12;98824.16;;;5.56;41.33
15884;BME280;8040;50.254;10.960;2023-04-05T08:11:39;98782.75;;;5.36;41.46
15884;BME280;8040;50.254;10.960;2023-04-05T08:14:04;98781.44;;;5.38;41.74
15884;BME280;8040;50.254;10.960;2023-04-05T08:16:30;98746.88;;;5.25;41.86
15884;BME280;8040;50.254;10.960;2023-04-05T08:18:55;98780.44;;;5.44;39.95
15884;BME280;8040;50.254;10.960;2023-04-05T08:21:22;98779.13;;;5.47;40.69
15884;BME280;8040;50.254;10.960;2023-04-05T08:23:47;98786.34;;;5.41;39.43
15884;BME280;8040;50.254;10.960;2023-04-05T08:26:14;98754.09;;;5.20;40.43
15884;BME280;8040;50.254;10.960;2023-04-05T08:28:40;98794.50;;;5.25;39.87
15884;BME280;8040;50.254;10.960;2023-04-05T08:31:05;98802.13;;;5.59;40.78
15884;BME280;8040;50.254;10.960;2023-04-05T08:33:31;98785.56;;;5.72;40.44
15884;BME280;8040;50.254;10.960;2023-04-05T08:35:56;98735.22;;;5.41;39.47
15884;BME280;8040;50.254;10.960;2023-04-05T08:38:22;98667.66;;;5.06;37.85
15884;BME280;8040;50.254;10.960;2023-04-05T08:40:48;98800.16;;;5.76;36.95
15884;BME280;8040;50.254;10.960;2023-04-05T08:46:16;98670.09;;;5.08;37.39
15884;BME280;8040;50.254;10.960;2023-04-05T08:48:43;98795.41;;;5.83;37.86
15884;BME280;8040;50.254;10.960;2023-04-05T08:51:08;98802.91;;;5.81;37.78
15884;BME280;8040;50.254;10.960;2023-04-05T08:53:34;98736.19;;;5.57;38.13
15884;BME280;8040;50.254;10.960;2023-04-05T08:56:01;98783.00;;;5.56;36.64
15884;BME280;8040;50.254;10.960;2023-04-05T08:58:27;98796.63;;;5.49;36.97
15884;BME280;8040;50.254;10.960;2023-04-05T09:00:54;98761.16;;;5.52;37.58
15884;BME280;8040;50.254;10.960;2023-04-05T09:03:21;98765.06;;;5.66;37.11
15884;BME280;8040;50.254;10.960;2023-04-05T09:05:49;98793.59;;;6.25;36.97
15884;BME280;8040;50.254;10.960;2023-04-05T09:08:16;98752.81;;;6.12;36.46
15884;BME280;8040;50.254;10.960;2023-04-05T09:10:42;98767.41;;;6.16;35.53
15884;BME280;8040;50.254;10.960;2023-04-05T09:13:08;98758.91;;;6.39;36.26
15884;BME280;8040;50.254;10.960;2023-04-05T09:15:37;98768.97;;;6.53;35.83
15884;BME280;8040;50.254;10.960;2023-04-05T09:18:03;98795.59;;;6.86;35.82
15884;BME280;8040;50.254;10.960;2023-04-05T09:20:29;98756.19;;;6.85;35.96
15884;BME280;8040;50.254;10.960;2023-04-05T09:22:56;98721.97;;;6.29;34.15
15884;BME280;8040;50.254;10.960;2023-04-05T09:27:57;98684.03;;;5.94;35.33
15884;BME280;8040;50.254;10.960;2023-04-05T09:30:23;98787.63;;;6.60;34.19
15884;BME280;8040;50.254;10.960;2023-04-05T09:32:53;98767.56;;;6.41;34.34
15884;BME280;8040;50.254;10.960;2023-04-05T09:35:27;98714.19;;;6.38;34.49
15884;BME280;8040;50.254;10.960;2023-04-05T09:37:58;98765.97;;;6.96;34.66
15884;BME280;8040;50.254;10.960;2023-04-05T09:40:45;98783.28;;;7.15;33.77
15884;BME280;8040;50.254;10.960;2023-04-05T09:43:12;98719.50;;;6.69;33.98
15884;BME280;8040;50.254;10.960;2023-04-05T09:45:41;98787.66;;;6.70;33.43
15884;BME280;8040;50.254;10.960;2023-04-05T09:48:07;98707.97;;;6.32;34.55
15884;BME280;8040;50.254;10.960;2023-04-05T09:50:34;98786.78;;;7.01;34.64
15884;BME280;8040;50.254;10.960;2023-04-05T09:53:07;98782.19;;;7.06;34.42
15884;BME280;8040;50.254;10.960;2023-04-05T09:55:33;98695.22;;;6.69;33.97
15884;BME280;8040;50.254;10.960;2023-04-05T09:58:00;98740.34;;;6.89;34.16
15884;BME280;8040;50.254;10.960;2023-04-05T10:00:27;98775.28;;;7.30;34.67
15884;BME280;8040;50.254;10.960;2023-04-05T10:02:54;98716.13;;;7.09;34.15
15884;BME280;8040;50.254;10.960;2023-04-05T10:05:26;98699.16;;;7.23;34.22
15884;BME280;8040;50.254;10.960;2023-04-05T10:07:52;98700.53;;;7.40;33.49
15884;BME280;8040;50.254;10.960;2023-04-05T10:10:20;98747.28;;;7.71;33.77
15884;BME280;8040;50.254;10.960;2023-04-05T10:12:46;98737.56;;;7.75;33.83
15884;BME280;8040;50.254;10.960;2023-04-05T10:15:14;98672.22;;;7.43;32.99
15884;BME280;8040;50.254;10.960;2023-04-05T10:18:02;98697.59;;;7.62;32.61
15884;BME280;8040;50.254;10.960;2023-04-05T10:20:38;98676.00;;;7.57;32.82
15884;BME280;8040;50.254;10.960;2023-04-05T10:23:11;98741.88;;;8.06;32.74
15884;BME280;8040;50.254;10.960;2023-04-05T10:28:32;98742.78;;;7.00;32.13
15884;BME280;8040;50.254;10.960;2023-04-05T10:31:19;98722.56;;;6.98;33.01
15884;BME280;8040;50.254;10.960;2023-04-05T10:33:54;98745.31;;;7.36;33.19
15884;BME280;8040;50.254;10.960;2023-04-05T10:39:11;98726.72;;;7.45;33.59
15884;BME280;8040;50.254;10.960;2023-04-05T10:41:48;98708.69;;;7.55;33.13
15884;BME280;8040;50.254;10.960;2023-04-05T10:44:17;98681.94;;;7.79;32.89
15884;BME280;8040;50.254;10.960;2023-04-05T10:46:44;98749.97;;;8.46;32.26
15884;BME280;8040;50.254;10.960;2023-04-05T10:51:47;98713.75;;;8.37;31.77
15884;BME280;8040;50.254;10.960;2023-04-05T10:54:16;98714.84;;;8.46;31.60
15884;BME280;8040;50.254;10.960;2023-04-05T10:56:43;98742.06;;;8.69;31.72
15884;BME280;8040;50.254;10.960;2023-04-05T10:59:11;98737.75;;;8.63;31.51
15884;BME280;8040;50.254;10.960;2023-04-05T11:01:37;98747.81;;;8.18;31.29
15884;BME280;8040;50.254;10.960;2023-04-05T11:04:10;98675.16;;;7.41;31.92
15884;BME280;8040;50.254;10.960;2023-04-05T11:06:37;98667.88;;;7.37;32.24
15884;BME280;8040;50.254;10.960;2023-04-05T11:11:38;98683.03;;;7.83;32.15
15884;BME280;8040;50.254;10.960;2023-04-05T11:14:22;98630.91;;;7.72;32.35
15884;BME280;8040;50.254;10.960;2023-04-05T11:16:52;98593.13;;;7.42;31.46
15884;BME280;8040;50.254;10.960;2023-04-05T11:19:19;98735.38;;;8.12;31.93
15884;BME280;8040;50.254;10.960;2023-04-05T11:21:45;98615.53;;;7.53;32.16
15884;BME280;8040;50.254;10.960;2023-04-05T11:24:12;98620.91;;;7.68;31.20
15884;BME280;8040;50.254;10.960;2023-04-05T11:29:07;98632.75;;;7.97;31.32
15884;BME280;8040;50.254;10.960;2023-04-05T11:31:33;98645.94;;;8.18;30.84
15884;BME280;8040;50.254;10.960;2023-04-05T11:34:02;98626.28;;;7.88;30.37
15884;BME280;8040;50.254;10.960;2023-04-05T11:36:41;98623.34;;;7.59;31.19
15884;BME280;8040;50.254;10.960;2023-04-05T11:42:02;98672.50;;;7.81;31.29
15884;BME280;8040;50.254;10.960;2023-04-05T11:44:49;98700.28;;;7.87;30.96
15884;BME280;8040;50.254;10.960;2023-04-05T11:47:18;98656.81;;;7.83;30.84
15884;BME280;8040;50.254;10.960;2023-04-05T11:49:49;98696.22;;;8.14;30.33
15884;BME280;8040;50.254;10.960;2023-04-05T11:52:18;98694.09;;;7.71;31.04
15884;BME280;8040;50.254;10.960;2023-04-05T11:54:44;98674.91;;;7.78;32.52
15884;BME280;8040;50.254;10.960;2023-04-05T11:57:14;98698.91;;;8.09;31.40
15884;BME280;8040;50.254;10.960;2023-04-05T11:59:42;98668.66;;;8.27;30.97
15884;BME280;8040;50.254;10.960;2023-04-05T12:02:08;98605.72;;;8.22;30.74
15884;BME280;8040;50.254;10.960;2023-04-05T12:04:35;98695.19;;;8.94;30.67
15884;BME280;8040;50.254;10.960;2023-04-05T12:07:13;98682.75;;;8.93;29.70
15884;BME280;8040;50.254;10.960;2023-04-05T12:10:00;98632.59;;;8.62;29.90
15884;BME280;8040;50.254;10.960;2023-04-05T12:12:27;98660.03;;;8.89;29.76
15884;BME280;8040;50.254;10.960;2023-04-05T12:15:00;98623.16;;;8.59;30.36
15884;BME280;8040;50.254;10.960;2023-04-05T12:17:50;98621.28;;;8.50;29.85
15884;BME280;8040;50.254;10.960;2023-04-05T12:20:21;98636.81;;;8.04;30.72
15884;BME280;8040;50.254;10.960;2023-04-05T12:22:47;98661.63;;;8.21;30.72
15884;BME280;8040;50.254;10.960;2023-04-05T12:25:14;98616.28;;;7.98;31.06
15884;BME280;8040;50.254;10.960;2023-04-05T12:27:41;98506.81;;;7.03;30.99
15884;BME280;8040;50.254;10.960;2023-04-05T12:32:45;98640.31;;;8.20;31.41
15884;BME280;8040;50.254;10.960;2023-04-05T12:35:12;98618.69;;;8.15;31.34
15884;BME280;8040;50.254;10.960;2023-04-05T12:37:39;98633.25;;;8.34;31.55
15884;BME280;8040;50.254;10.960;2023-04-05T12:40:06;98601.09;;;8.27;31.18
15884;BME280;8040;50.254;10.960;2023-04-05T12:42:35;98572.25;;;7.93;31.13
15884;BME280;8040;50.254;10.960;2023-04-05T12:45:06;98647.28;;;8.36;31.46
15884;BME280;8040;50.254;10.960;2023-04-05T12:47:33;98545.06;;;7.64;31.43
15884;BME280;8040;50.254;10.960;2023-04-05T12:50:12;98502.47;;;7.41;31.24
15884;BME280;8040;50.254;10.960;2023-04-05T12:52:38;98620.09;;;7.87;31.39
15884;BME280;8040;50.254;10.960;2023-04-05T12:55:13;98570.97;;;7.70;31.71
15884;BME280;8040;50.254;10.960;2023-04-05T12:57:39;98588.50;;;7.78;31.25
15884;BME280;8040;50.254;10.960;2023-04-05T13:00:05;98592.56;;;7.70;31.67
15884;BME280;8040;50.254;10.960;2023-04-05T13:02:31;98568.56;;;7.54;31.08
15884;BME280;8040;50.254;10.960;2023-04-05T13:04:56;98569.09;;;7.56;31.18
15884;BME280;8040;50.254;10.960;2023-04-05T13:07:22;98599.84;;;7.75;30.84
15884;BME280;8040;50.254;10.960;2023-04-05T13:09:47;98563.19;;;7.54;30.80
15884;BME280;8040;50.254;10.960;2023-04-05T13:12:12;98579.38;;;7.39;30.58
15884;BME280;8040;50.254;10.960;2023-04-05T13:14:40;98573.44;;;7.42;30.95
15884;BME280;8040;50.254;10.960;2023-04-05T13:17:05;98570.22;;;7.25;31.11
15884;BME280;8040;50.254;10.960;2023-04-05T13:19:31;98593.13;;;7.67;31.64
15884;BME280;8040;50.254;10.960;2023-04-05T13:21:57;98590.41;;;7.77;31.58
15884;BME280;8040;50.254;10.960;2023-04-05T13:24:22;98557.16;;;7.87;31.16
15884;BME280;8040;50.254;10.960;2023-04-05T13:26:47;98588.13;;;8.29;30.75
15884;BME280;8040;50.254;10.960;2023-04-05T13:29:13;98513.94;;;7.92;31.04
15884;BME280;8040;50.254;10.960;2023-04-05T13:31:38;98531.94;;;8.16;30.54
15884;BME280;8040;50.254;10.960;2023-04-05T13:34:05;98565.56;;;8.54;30.51
15884;BME280;8040;50.254;10.960;2023-04-05T13:36:30;98558.28;;;8.49;30.07
15884;BME280;8040;50.254;10.960;2023-04-05T13:38:56;98547.84;;;8.33;30.26
15884;BME280;8040;50.254;10.960;2023-04-05T13:41:21;98507.44;;;7.88;30.26
15884;BME280;8040;50.254;10.960;2023-04-05T13:43:47;98560.28;;;8.24;30.21